createdAt,value
2018-12-29T00:00:06.795Z,5.93
2018-12-29T00:02:44.305Z,6.00
2018-12-29T00:05:21.772Z,5.50
2018-12-29T00:07:59.286Z,4.90
2018-12-29T00:10:36.773Z,4.40
2018-12-29T00:13:15.476Z,4.50
2018-12-29T00:15:52.955Z,4.40
2018-12-29T00:18:30.489Z,3.10
2018-12-29T00:21:07.978Z,3.47
2018-12-29T00:23:45.457Z,4.13
2018-12-29T00:26:22.936Z,3.40
2018-12-29T00:29:00.473Z,5.13
2018-12-29T00:31:37.952Z,4.80
2018-12-29T00:34:15.507Z,5.00
2018-12-29T00:36:53.004Z,4.20
2018-12-29T00:39:30.498Z,4.03
2018-12-29T00:42:07.984Z,3.40
2018-12-29T00:44:45.476Z,4.67
2018-12-29T00:47:22.968Z,5.93
2018-12-29T00:50:00.449Z,5.87
2018-12-29T00:52:37.920Z,7.00
2018-12-29T00:55:15.380Z,5.70
2018-12-29T00:57:52.868Z,5.27
2018-12-29T01:00:30.343Z,5.83
2018-12-29T01:03:07.836Z,4.60
2018-12-29T01:05:45.308Z,4.90
2018-12-29T01:08:22.794Z,5.80
2018-12-29T01:11:00.260Z,5.50
2018-12-29T01:13:37.750Z,5.77
2018-12-29T01:16:15.212Z,4.50
2018-12-29T01:18:52.693Z,4.53
2018-12-29T01:21:30.177Z,4.13
2018-12-29T01:24:07.664Z,4.57
2018-12-29T01:26:45.132Z,4.83
2018-12-29T01:29:22.639Z,5.93
2018-12-29T01:32:00.113Z,4.53
2018-12-29T01:34:37.602Z,6.83
2018-12-29T01:37:15.095Z,5.77
2018-12-29T01:39:52.574Z,5.87
2018-12-29T01:42:30.341Z,6.23
2018-12-29T01:45:07.981Z,6.97
2018-12-29T01:47:46.982Z,8.23
2018-12-29T01:50:22.974Z,6.40
2018-12-29T01:53:00.462Z,5.83
2018-12-29T01:55:37.941Z,7.03
2018-12-29T01:58:15.432Z,6.73
2018-12-29T02:00:52.907Z,6.20
2018-12-29T02:03:30.483Z,5.43
2018-12-29T02:06:07.875Z,6.90
2018-12-29T02:08:45.375Z,5.80
2018-12-29T02:11:22.845Z,6.03
2018-12-29T02:14:00.337Z,6.03
2018-12-29T02:16:41.768Z,6.27
2018-12-29T02:19:19.171Z,7.20
2018-12-29T02:21:56.652Z,4.57
2018-12-29T02:24:34.132Z,5.47
2018-12-29T02:27:11.590Z,5.33
2018-12-29T02:29:49.130Z,4.63
2018-12-29T02:32:26.598Z,5.10
2018-12-29T02:35:04.091Z,3.50
2018-12-29T02:37:41.548Z,4.60
2018-12-29T02:40:19.058Z,3.87
2018-12-29T02:42:56.543Z,4.37
2018-12-29T02:45:34.027Z,4.73
2018-12-29T02:48:11.534Z,3.67
2018-12-29T02:50:49.010Z,3.83
2018-12-29T02:53:26.534Z,3.87
2018-12-29T02:56:04.011Z,3.40
2018-12-29T02:58:41.507Z,6.27
2018-12-29T03:01:18.991Z,5.93
2018-12-29T03:03:56.498Z,4.03
2018-12-29T03:06:33.979Z,5.87
2018-12-29T03:09:11.478Z,5.47
2018-12-29T03:11:48.989Z,5.43
2018-12-29T03:14:26.486Z,5.20
2018-12-29T03:17:03.950Z,4.77
2018-12-29T03:19:41.432Z,5.57
2018-12-29T03:22:18.899Z,3.93
2018-12-29T03:24:56.389Z,3.87
2018-12-29T03:27:33.851Z,3.47
2018-12-29T03:30:11.427Z,4.33
2018-12-29T03:32:48.906Z,5.40
2018-12-29T03:35:26.417Z,4.37
2018-12-29T03:38:03.893Z,5.07
2018-12-29T03:40:41.407Z,4.80
2018-12-29T03:43:18.896Z,3.30
2018-12-29T03:45:56.372Z,5.53
2018-12-29T03:48:33.863Z,4.00
2018-12-29T03:51:11.333Z,5.00
2018-12-29T03:53:48.826Z,4.37
2018-12-29T03:56:26.305Z,4.83
2018-12-29T03:59:03.807Z,4.90
2018-12-29T04:01:41.275Z,5.17
2018-12-29T04:04:18.785Z,4.27
2018-12-29T04:06:56.263Z,3.97
2018-12-29T04:09:41.237Z,3.93
2018-12-29T04:12:32.166Z,2.90
2018-12-29T04:15:09.668Z,3.27
2018-12-29T04:17:47.127Z,3.33
2018-12-29T04:20:24.667Z,3.93
2018-12-29T04:23:02.141Z,4.07
2018-12-29T04:25:39.640Z,4.97
2018-12-29T04:28:17.120Z,4.43
2018-12-29T04:30:54.631Z,3.87
2018-12-29T04:33:32.091Z,4.07
2018-12-29T04:36:09.581Z,2.90
2018-12-29T04:38:47.074Z,2.47
2018-12-29T04:41:24.554Z,3.10
2018-12-29T04:44:02.052Z,2.83
2018-12-29T04:46:39.533Z,3.03
2018-12-29T04:49:17.030Z,3.60
2018-12-29T04:51:54.498Z,3.53
2018-12-29T04:54:32.013Z,3.27
2018-12-29T04:57:09.720Z,3.73
2018-12-29T04:59:47.209Z,5.03
2018-12-29T05:02:24.687Z,3.60
2018-12-29T05:05:02.210Z,3.67
2018-12-29T05:07:39.690Z,6.70
2018-12-29T05:10:17.205Z,6.13
2018-12-29T05:12:54.679Z,6.33
2018-12-29T05:15:32.180Z,6.63
2018-12-29T05:18:09.666Z,5.83
2018-12-29T05:20:47.153Z,5.57
2018-12-29T05:23:24.632Z,6.53
2018-12-29T05:26:02.122Z,5.23
2018-12-29T05:28:39.609Z,5.63
2018-12-29T05:31:17.125Z,5.77
2018-12-29T05:33:54.584Z,5.73
2018-12-29T05:36:32.082Z,5.10
2018-12-29T05:39:10.679Z,4.73
2018-12-29T05:41:48.182Z,4.50
2018-12-29T05:44:25.673Z,3.63
2018-12-29T05:47:03.141Z,3.23
2018-12-29T05:49:40.655Z,3.50
2018-12-29T05:52:18.115Z,5.13
2018-12-29T05:54:55.609Z,5.63
2018-12-29T05:57:33.110Z,6.60
2018-12-29T06:00:10.681Z,7.10
2018-12-29T06:02:48.173Z,6.30
2018-12-29T06:05:25.684Z,6.77
2018-12-29T06:08:03.175Z,6.20
2018-12-29T06:10:40.681Z,7.03
2018-12-29T06:13:18.169Z,7.40
2018-12-29T06:15:55.675Z,6.90
2018-12-29T06:18:33.149Z,7.60
2018-12-29T06:21:10.665Z,7.03
2018-12-29T06:23:48.151Z,6.37
2018-12-29T06:26:25.646Z,6.27
2018-12-29T06:29:03.155Z,6.40
2018-12-29T06:31:44.295Z,4.93
2018-12-29T06:34:21.878Z,5.07
2018-12-29T06:36:59.396Z,6.67
2018-12-29T06:39:36.862Z,7.53
2018-12-29T06:42:14.373Z,6.30
2018-12-29T06:44:51.904Z,6.60
2018-12-29T06:47:29.373Z,6.63
2018-12-29T06:50:07.090Z,4.00
2018-12-29T06:52:44.557Z,4.83
2018-12-29T06:55:22.040Z,4.57
2018-12-29T06:57:59.514Z,5.47
2018-12-29T07:00:37.027Z,6.73
2018-12-29T07:03:14.494Z,5.27
2018-12-29T07:05:51.988Z,6.20
2018-12-29T07:08:29.461Z,6.20
2018-12-29T07:11:06.948Z,6.60
2018-12-29T07:13:44.419Z,5.93
2018-12-29T07:16:21.926Z,7.23
2018-12-29T07:18:59.407Z,6.43
2018-12-29T07:21:36.905Z,7.10
2018-12-29T07:24:14.380Z,5.83
2018-12-29T07:26:51.868Z,7.43
2018-12-29T07:29:29.373Z,5.47
2018-12-29T07:32:06.905Z,5.33
2018-12-29T07:34:44.392Z,5.00
2018-12-29T07:37:21.878Z,4.43
2018-12-29T07:39:59.357Z,5.67
2018-12-29T07:42:36.868Z,5.87
2018-12-29T07:45:14.354Z,5.13
2018-12-29T07:47:51.818Z,4.77
2018-12-29T07:50:29.325Z,5.40
2018-12-29T07:53:07.132Z,5.10
2018-12-29T07:55:44.631Z,5.87
2018-12-29T07:58:22.093Z,4.77
2018-12-29T08:00:59.590Z,4.50
2018-12-29T08:03:37.073Z,4.20
2018-12-29T08:06:14.868Z,5.17
2018-12-29T08:08:52.372Z,5.50
2018-12-29T08:11:29.905Z,3.97
2018-12-29T08:14:07.378Z,4.90
2018-12-29T08:16:44.872Z,4.03
2018-12-29T08:19:22.362Z,4.30
2018-12-29T08:22:00.759Z,4.40
2018-12-29T08:24:38.237Z,4.27
2018-12-29T08:27:15.743Z,4.17
2018-12-29T08:29:53.560Z,3.80
2018-12-29T08:32:31.045Z,4.40
2018-12-29T08:35:08.900Z,2.97
2018-12-29T08:37:46.404Z,3.60
2018-12-29T08:40:23.894Z,3.67
2018-12-29T08:43:01.407Z,5.77
2018-12-29T08:45:38.900Z,3.63
2018-12-29T08:48:16.399Z,4.03
2018-12-29T08:50:53.900Z,5.03
2018-12-29T08:53:31.374Z,5.67
2018-12-29T08:56:08.884Z,6.10
2018-12-29T08:58:46.375Z,5.03
2018-12-29T09:01:23.974Z,4.43
2018-12-29T09:04:01.443Z,3.63
2018-12-29T09:06:38.938Z,3.70
2018-12-29T09:09:16.433Z,5.10
2018-12-29T09:11:53.921Z,3.80
2018-12-29T09:14:31.431Z,3.50
2018-12-29T09:17:12.245Z,4.20
2018-12-29T09:19:46.410Z,4.13
2018-12-29T09:22:23.949Z,3.30
2018-12-29T09:25:01.424Z,5.33
2018-12-29T09:27:38.936Z,4.27
2018-12-29T09:30:18.926Z,5.33
2018-12-29T09:32:56.460Z,4.67
2018-12-29T09:35:33.960Z,5.30
2018-12-29T09:38:11.493Z,4.93
2018-12-29T09:40:49.003Z,5.27
2018-12-29T09:43:26.561Z,5.03
2018-12-29T09:46:04.153Z,4.03
2018-12-29T09:48:41.641Z,3.63
2018-12-29T09:51:19.169Z,3.83
2018-12-29T09:53:56.838Z,5.33
2018-12-29T09:56:34.353Z,3.80
2018-12-29T09:59:11.890Z,4.40
2018-12-29T10:01:49.411Z,4.20
2018-12-29T10:04:27.207Z,4.83
2018-12-29T10:07:04.792Z,4.53
2018-12-29T10:09:42.328Z,5.07
2018-12-29T10:12:20.365Z,4.23
2018-12-29T10:14:58.651Z,3.83
2018-12-29T10:17:36.231Z,3.93
2018-12-29T10:20:13.726Z,3.73
2018-12-29T10:22:51.494Z,3.73
2018-12-29T10:25:28.983Z,3.63
2018-12-29T10:28:06.544Z,4.87
2018-12-29T10:30:44.092Z,5.70
2018-12-29T10:33:21.693Z,7.00
2018-12-29T10:35:59.291Z,6.50
2018-12-29T10:38:36.832Z,6.83
2018-12-29T10:41:14.308Z,6.60
2018-12-29T10:43:51.821Z,7.40
2018-12-29T10:46:29.338Z,5.83
2018-12-29T10:49:06.867Z,5.03
2018-12-29T10:51:44.369Z,6.63
2018-12-29T10:54:21.838Z,6.00
2018-12-29T10:56:59.342Z,5.33
2018-12-29T10:59:36.833Z,5.50
2018-12-29T11:02:14.339Z,4.80
2018-12-29T11:04:51.831Z,6.90
2018-12-29T11:07:29.327Z,6.50
2018-12-29T11:10:06.903Z,6.13
2018-12-29T11:12:44.414Z,7.80
2018-12-29T11:15:21.875Z,6.97
2018-12-29T11:17:59.386Z,6.07
2018-12-29T11:20:36.878Z,5.57
2018-12-29T11:23:14.601Z,5.67
2018-12-29T11:25:52.604Z,5.80
2018-12-29T11:28:30.312Z,5.83
2018-12-29T11:31:07.880Z,4.33
2018-12-29T11:33:45.446Z,5.10
2018-12-29T11:36:23.619Z,4.67
2018-12-29T11:39:01.257Z,4.70
2018-12-29T11:41:38.747Z,4.73
2018-12-29T11:44:16.263Z,4.60
2018-12-29T11:46:53.736Z,4.20
2018-12-29T11:50:20.926Z,3.77
2018-12-29T11:52:58.438Z,4.57
2018-12-29T11:55:35.918Z,4.43
2018-12-29T11:58:13.449Z,5.53
2018-12-29T12:00:50.926Z,6.60
2018-12-29T12:03:28.460Z,5.47
2018-12-29T12:06:05.945Z,6.10
2018-12-29T12:08:43.455Z,5.67
2018-12-29T12:11:20.956Z,5.93
2018-12-29T12:13:58.480Z,5.70
2018-12-29T12:16:35.958Z,7.20
2018-12-29T12:19:13.458Z,4.17
2018-12-29T12:21:50.930Z,4.47
2018-12-29T12:24:28.528Z,4.27
2018-12-29T12:27:06.044Z,5.73
2018-12-29T12:29:43.580Z,5.43
2018-12-29T12:32:21.142Z,3.53
2018-12-29T12:34:58.626Z,3.60
2018-12-29T12:37:36.230Z,3.80
2018-12-29T12:40:13.703Z,4.30
2018-12-29T12:42:51.223Z,3.60
2018-12-29T12:45:28.724Z,4.47
2018-12-29T12:48:06.245Z,5.37
2018-12-29T12:50:43.738Z,5.80
2018-12-29T12:53:21.267Z,7.53
2018-12-29T12:55:58.739Z,10.93
2018-12-29T12:58:36.306Z,9.50
2018-12-29T13:01:13.850Z,8.97
2018-12-29T13:03:51.377Z,10.73
2018-12-29T13:06:28.978Z,8.10
2018-12-29T13:09:07.847Z,7.00
2018-12-29T13:11:45.651Z,7.90
2018-12-29T13:14:23.169Z,7.83
2018-12-29T13:17:00.641Z,7.90
2018-12-29T13:19:38.161Z,7.87
2018-12-29T13:22:15.648Z,8.60
2018-12-29T13:24:53.164Z,9.63
2018-12-29T13:27:30.655Z,8.30
2018-12-29T13:30:08.262Z,8.10
2018-12-29T13:32:45.762Z,6.10
2018-12-29T13:35:23.457Z,7.50
2018-12-29T13:38:02.028Z,8.00
2018-12-29T13:40:40.138Z,7.83
2018-12-29T13:43:18.728Z,7.47
2018-12-29T13:46:09.333Z,7.00
2018-12-29T13:48:52.760Z,7.00
2018-12-29T13:51:30.949Z,6.67
2018-12-29T13:54:08.448Z,6.20
2018-12-29T13:56:46.138Z,7.10
2018-12-29T13:59:25.003Z,9.13
2018-12-29T14:02:03.284Z,5.80
2018-12-29T14:04:41.608Z,6.63
2018-12-29T14:07:19.945Z,5.23
2018-12-29T14:09:58.267Z,6.13
2018-12-29T14:12:36.667Z,7.10
2018-12-29T14:15:14.445Z,6.10
2018-12-29T14:17:52.476Z,5.63
2018-12-29T14:20:30.895Z,6.83
2018-12-29T14:23:09.220Z,6.87
2018-12-29T14:25:47.538Z,7.30
2018-12-29T14:28:25.647Z,7.10
2018-12-29T14:31:03.146Z,7.73
2018-12-29T14:33:40.660Z,8.27
2018-12-29T14:36:18.159Z,8.07
2018-12-29T14:38:55.677Z,8.03
2018-12-29T14:41:33.188Z,8.13
2018-12-29T14:44:10.696Z,6.23
2018-12-29T14:46:48.176Z,6.97
2018-12-29T14:49:29.747Z,9.70
2018-12-29T14:52:07.209Z,6.93
2018-12-29T14:54:45.341Z,6.90
2018-12-29T14:57:23.771Z,7.70
2018-12-29T15:00:01.673Z,6.63
2018-12-29T15:02:39.705Z,8.37
2018-12-29T15:05:17.990Z,8.23
2018-12-29T15:07:55.635Z,7.70
2018-12-29T15:10:33.521Z,8.93
2018-12-29T15:13:11.503Z,7.97
2018-12-29T15:15:49.223Z,8.47
2018-12-29T15:18:27.011Z,7.57
2018-12-29T15:21:04.746Z,8.00
2018-12-29T15:23:42.585Z,8.00
2018-12-29T15:26:20.274Z,9.07
2018-12-29T15:28:57.808Z,9.30
2018-12-29T15:31:36.002Z,7.57
2018-12-29T15:34:13.841Z,8.07
2018-12-29T15:36:51.882Z,8.17
2018-12-29T15:39:29.784Z,9.40
2018-12-29T15:42:11.307Z,9.83
2018-12-29T15:44:48.833Z,8.93
2018-12-29T15:47:26.318Z,9.17
2018-12-29T15:50:03.850Z,9.13
2018-12-29T15:52:41.328Z,7.73
2018-12-29T15:55:18.837Z,8.80
2018-12-29T15:57:56.341Z,9.60
2018-12-29T16:00:33.847Z,9.40
2018-12-29T16:03:11.327Z,9.33
2018-12-29T16:05:48.840Z,8.27
2018-12-29T16:08:26.320Z,8.20
2018-12-29T16:11:03.845Z,7.83
2018-12-29T16:13:41.353Z,6.63
2018-12-29T16:16:18.847Z,6.90
2018-12-29T16:18:58.967Z,7.60
2018-12-29T16:21:33.868Z,7.30
2018-12-29T16:24:11.384Z,7.00
2018-12-29T16:26:48.858Z,6.70
2018-12-29T16:29:26.405Z,7.40
2018-12-29T16:32:03.939Z,6.60
2018-12-29T16:34:41.367Z,9.20
2018-12-29T16:37:18.847Z,9.20
2018-12-29T16:39:56.372Z,8.57
2018-12-29T16:42:33.868Z,7.97
2018-12-29T16:45:11.368Z,9.07
2018-12-29T16:47:48.924Z,8.13
2018-12-29T16:50:44.382Z,7.63
2018-12-29T16:53:28.917Z,8.93
2018-12-29T16:56:01.930Z,7.77
2018-12-29T16:58:40.411Z,6.30
2018-12-29T17:01:17.924Z,7.40
2018-12-29T17:03:55.412Z,9.83
2018-12-29T17:06:32.923Z,8.13
2018-12-29T17:09:11.117Z,8.30
2018-12-29T17:11:52.562Z,8.83
2018-12-29T17:14:26.100Z,8.57
2018-12-29T17:17:03.631Z,7.77
2018-12-29T17:19:41.149Z,7.03
2018-12-29T17:22:18.646Z,10.07
2018-12-29T17:24:56.157Z,9.10
2018-12-29T17:27:33.678Z,8.83
2018-12-29T17:30:11.213Z,9.43
2018-12-29T17:32:48.746Z,9.10
2018-12-29T17:35:26.233Z,8.07
2018-12-29T17:38:03.742Z,8.33
2018-12-29T17:40:41.312Z,7.93
2018-12-29T17:43:18.793Z,8.57
2018-12-29T17:45:56.315Z,7.20
2018-12-29T17:48:33.802Z,7.27
2018-12-29T17:51:26.624Z,8.13
2018-12-29T17:54:04.166Z,8.03
2018-12-29T17:56:41.662Z,7.57
2018-12-29T17:59:19.139Z,9.63
2018-12-29T18:01:56.644Z,10.30
2018-12-29T18:04:34.155Z,9.73
2018-12-29T18:07:11.662Z,10.97
2018-12-29T18:09:49.130Z,9.23
2018-12-29T18:12:26.714Z,10.70
2018-12-29T18:15:04.234Z,9.83
2018-12-29T18:17:41.718Z,10.23
2018-12-29T18:20:19.233Z,7.60
2018-12-29T18:22:56.725Z,6.73
2018-12-29T18:25:34.229Z,8.37
2018-12-29T18:28:11.752Z,7.50
2018-12-29T18:30:49.280Z,7.40
2018-12-29T18:33:26.802Z,6.47
2018-12-29T18:36:04.329Z,6.27
2018-12-29T18:38:41.809Z,5.10
2018-12-29T18:41:19.303Z,4.70
2018-12-29T18:43:56.795Z,4.83
2018-12-29T18:46:34.328Z,4.83
2018-12-29T18:49:12.829Z,3.83
2018-12-29T18:51:50.442Z,3.90
2018-12-29T18:54:28.461Z,3.53
2018-12-29T18:57:06.134Z,3.97
2018-12-29T18:59:43.755Z,4.83
2018-12-29T19:02:21.303Z,3.33
2018-12-29T19:04:58.812Z,3.97
2018-12-29T19:07:36.303Z,4.43
2018-12-29T19:10:13.865Z,4.20
2018-12-29T19:12:51.712Z,4.70
2018-12-29T19:15:28.924Z,3.83
2018-12-29T19:18:06.439Z,3.50
2018-12-29T19:20:43.975Z,5.10
2018-12-29T19:23:21.518Z,4.20
2018-12-29T19:25:59.104Z,4.97
2018-12-29T19:28:36.744Z,4.70
2018-12-29T19:31:15.585Z,4.07
2018-12-29T19:33:53.789Z,6.30
2018-12-29T19:36:32.767Z,4.83
2018-12-29T19:39:12.221Z,4.97
2018-12-29T19:41:54.969Z,4.03
2018-12-29T19:44:30.525Z,5.00
2018-12-29T19:47:11.904Z,5.07
2018-12-29T19:49:53.860Z,4.43
2018-12-29T19:52:30.071Z,3.03
2018-12-29T19:55:08.282Z,5.30
2018-12-29T19:57:46.954Z,4.53
2018-12-29T20:00:25.760Z,4.67
2018-12-29T20:03:03.571Z,2.37
2018-12-29T20:05:41.844Z,2.87
2018-12-29T20:08:20.855Z,3.60
2018-12-29T20:10:59.323Z,3.93
2018-12-29T20:13:37.073Z,2.70
2018-12-29T20:16:15.864Z,2.43
2018-12-29T20:18:54.476Z,2.97
2018-12-29T20:21:32.422Z,4.40
2018-12-29T20:24:10.769Z,4.43
2018-12-29T20:26:49.099Z,2.87
2018-12-29T20:29:27.778Z,2.73
2018-12-29T20:32:06.293Z,2.57
2018-12-29T20:34:44.264Z,2.70
2018-12-29T20:37:22.420Z,2.93
2018-12-29T20:40:01.300Z,2.77
2018-12-29T20:42:41.592Z,2.00
2018-12-29T20:45:19.086Z,3.73
2018-12-29T20:47:56.612Z,2.20
2018-12-29T20:50:34.112Z,2.30
2018-12-29T20:53:11.601Z,2.40
2018-12-29T20:55:49.097Z,2.40
2018-12-29T20:58:26.617Z,2.60
2018-12-29T21:01:04.095Z,2.10
2018-12-29T21:03:41.650Z,3.90
2018-12-29T21:06:19.115Z,3.17
2018-12-29T21:08:56.640Z,3.87
2018-12-29T21:11:34.147Z,3.50
2018-12-29T21:14:11.656Z,2.60
2018-12-29T21:16:49.179Z,2.63
2018-12-29T21:19:26.694Z,2.30
2018-12-29T21:22:04.201Z,2.57
2018-12-29T21:24:41.714Z,2.20
2018-12-29T21:27:19.229Z,2.50
2018-12-29T21:29:56.790Z,2.33
2018-12-29T21:32:34.334Z,1.87
2018-12-29T21:35:11.877Z,3.30
2018-12-29T21:37:49.376Z,2.40
2018-12-29T21:40:26.892Z,2.43
2018-12-29T21:43:04.429Z,2.67
2018-12-29T21:45:41.951Z,2.97
2018-12-29T21:48:19.565Z,2.90
2018-12-29T21:50:57.163Z,3.40
2018-12-29T21:53:34.694Z,3.30
2018-12-29T21:56:12.215Z,3.10
2018-12-29T21:58:49.736Z,2.70
2018-12-29T22:01:27.219Z,3.07
2018-12-29T22:04:04.800Z,3.07
2018-12-29T22:06:42.368Z,3.17
2018-12-29T22:09:20.042Z,3.40
2018-12-29T22:11:57.717Z,2.80
2018-12-29T22:14:35.248Z,3.13
2018-12-29T22:17:12.784Z,3.57
2018-12-29T22:19:50.385Z,3.03
2018-12-29T22:22:28.039Z,2.40
2018-12-29T22:25:05.717Z,2.47
2018-12-29T22:27:43.273Z,2.53
2018-12-29T22:30:20.878Z,2.60
2018-12-29T22:32:58.485Z,2.63
2018-12-29T22:35:36.007Z,2.90
2018-12-29T22:38:13.673Z,2.57
2018-12-29T22:40:51.288Z,2.50
2018-12-29T22:43:28.799Z,2.63
2018-12-29T22:46:06.276Z,2.40
2018-12-29T22:48:43.777Z,3.43
2018-12-29T22:51:21.256Z,3.27
2018-12-29T22:53:58.752Z,3.30
2018-12-29T22:56:36.215Z,3.10
2018-12-29T22:59:13.719Z,3.47
2018-12-29T23:01:51.206Z,3.50
2018-12-29T23:04:28.807Z,4.87
2018-12-29T23:07:06.272Z,4.07
2018-12-29T23:09:44.175Z,3.87
2018-12-29T23:12:21.673Z,3.93
2018-12-29T23:14:59.164Z,3.43
2018-12-29T23:17:36.680Z,3.20
2018-12-29T23:20:14.164Z,4.33
2018-12-29T23:22:51.663Z,3.43
2018-12-29T23:25:29.134Z,4.23
2018-12-29T23:28:06.654Z,3.83
2018-12-29T23:30:44.141Z,5.43
2018-12-29T23:33:22.054Z,5.17
2018-12-29T23:35:59.518Z,4.97
2018-12-29T23:38:37.017Z,5.13
2018-12-29T23:41:14.512Z,4.70
2018-12-29T23:43:52.608Z,4.80
2018-12-29T23:46:30.107Z,4.17
2018-12-29T23:49:07.595Z,3.90
2018-12-29T23:51:45.087Z,5.03
2018-12-29T23:54:22.600Z,4.73
2018-12-29T23:57:00.076Z,3.87
2018-12-29T23:59:37.907Z,4.60
